KTEB/TEB METAR and TAF weather

Enter ICAO airport designator
Station Type Date Time Source
KTEB METAR 2019/08/24 21:51 UTC NOAA

KTEB 242151Z 33005KT 10SM SCT070 24/09 A3016 RMK AO2 SLP213 T02440094


Station Type Date Time Source
KTEB Decoded METAR 2019/08/24 21:51 UTC NOAA

Station name not available
Aug 24, 2019 - 05:51 PM EDT / 2019.08.24 2151 UTC
Wind: from the NNW (330 degrees) at 6 MPH (5 KT):0
Visibility: 10 mile(s):0
Sky conditions: partly cloudy
Temperature: 75.9 F (24.4 C)
Dew Point: 48.9 F (9.4 C)
Relative Humidity: 38%
Pressure (altimeter): 30.16 in. Hg (1021 hPa)
ob: KTEB 242151Z 33005KT 10SM SCT070 24/09 A3016 RMK AO2 SLP213 T02440094
cycle: 22

Station Type Date Time Source
KTEB TAF 2019/08/24 22:36 UTC NOAA

TAF
AMD KTEB 242135Z 2422/2524 02005KT P6SM SCT060
FM251500 06009G15KT P6SM SCT040
FM251900 07009G14KT P6SM BKN040

Example: see airport list